Time;durP1;ratioP1;P1;durP2;ratioP2;P2;SDS_P1;SDS_P2;PMS_P1;PMS_P2;Temp;Humidity;BMP_temperature;BMP_pressure;BME280_temperature;BME280_humidity;BME280_pressure;Samples;Min_cycle;Max_cycle;Signal;HPM_P1;HPM_P2
2021/05/24 00:00:41;;;;;;;1.25;0.85;;;;;;;15.33;55.81;100947.31;5073531;28;20040;-88
2021/05/24 00:03:08;;;;;;;2.78;0.88;;;;;;;15.33;55.75;100940.16;5073385;28;20025;-86
2021/05/24 00:05:36;;;;;;;2.83;1.35;;;;;;;15.32;55.77;100940.22;5073264;28;20039;-82
2021/05/24 00:08:04;;;;;;;2.95;1.20;;;;;;;15.41;55.43;100933.66;5073606;28;20115;-85
2021/05/24 00:10:33;;;;;;;2.97;1.13;;;;;;;15.40;55.59;100929.25;5073317;28;20032;-85
2021/05/24 00:13:03;;;;;;;4.30;1.10;;;;;;;15.30;55.58;100928.72;5073256;28;20087;-85
2021/05/24 00:15:34;;;;;;;4.07;1.02;;;;;;;15.34;55.35;100925.03;5073027;28;20129;-85
2021/05/24 00:18:01;;;;;;;3.88;1.13;;;;;;;15.35;54.83;100924.97;5072945;28;20438;-86
2021/05/24 00:20:40;;;;;;;3.65;0.88;;;;;;;15.53;54.51;100925.19;5073230;28;20064;-89
2021/05/24 00:23:07;;;;;;;2.05;0.90;;;;;;;15.44;54.50;100921.06;5073199;28;20480;-86
2021/05/24 00:25:33;;;;;;;4.82;1.27;;;;;;;15.56;54.34;100916.19;5072893;28;20438;-84
2021/05/24 00:28:01;;;;;;;1.05;0.88;;;;;;;15.56;54.08;100905.50;5072073;28;20036;-86
2021/05/24 00:30:32;;;;;;;4.22;1.30;;;;;;;15.47;54.46;100904.06;5073114;28;20021;-86
2021/05/24 00:33:01;;;;;;;2.67;0.93;;;;;;;15.52;54.34;100897.59;5073245;28;20127;-84
2021/05/24 00:35:28;;;;;;;5.03;1.75;;;;;;;15.55;54.09;100896.59;5073147;28;20028;-85
2021/05/24 00:37:54;;;;;;;2.75;0.90;;;;;;;15.59;53.96;100897.34;5073173;28;20094;-84
2021/05/24 00:40:21;;;;;;;3.10;1.05;;;;;;;15.58;54.25;100900.97;5073274;28;20058;-82
2021/05/24 00:42:48;;;;;;;2.10;1.00;;;;;;;15.53;54.14;100898.47;5072921;28;20060;-84
2021/05/24 00:45:15;;;;;;;3.65;1.00;;;;;;;15.62;53.93;100902.59;5073212;28;20028;-85
2021/05/24 00:47:42;;;;;;;3.13;1.05;;;;;;;15.61;53.97;100900.84;5072787;28;20029;-86
2021/05/24 00:50:09;;;;;;;3.45;1.15;;;;;;;15.60;54.25;100893.75;5073086;28;20107;-86
2021/05/24 00:52:36;;;;;;;3.38;0.93;;;;;;;15.71;54.35;100886.16;5072997;28;20041;-84
2021/05/24 00:55:05;;;;;;;1.70;1.00;;;;;;;15.65;54.71;100878.41;5072808;28;20068;-87
2021/05/24 00:57:32;;;;;;;3.40;1.27;;;;;;;15.70;54.76;100863.06;5072864;28;20064;-86
2021/05/24 00:59:59;;;;;;;3.20;1.10;;;;;;;15.60;55.21;100877.72;5072838;28;20036;-85
2021/05/24 01:02:26;;;;;;;2.55;1.08;;;;;;;15.62;55.10;100878.53;5071892;28;20029;-87
2021/05/24 01:04:54;;;;;;;2.33;1.25;;;;;;;15.65;55.15;100865.94;5072466;28;20059;-85
2021/05/24 01:07:21;;;;;;;4.25;1.33;;;;;;;15.62;55.38;100871.38;5072550;28;20464;-86
2021/05/24 01:09:47;;;;;;;4.40;1.08;;;;;;;15.59;55.52;100870.63;5072736;28;20025;-86
2021/05/24 01:12:14;;;;;;;4.90;1.10;;;;;;;15.61;55.51;100863.44;5071540;28;20029;-85
2021/05/24 01:14:41;;;;;;;1.02;0.88;;;;;;;15.64;55.54;100852.66;5072686;28;20456;-86
2021/05/24 01:17:07;;;;;;;3.42;1.13;;;;;;;15.66;55.37;100861.44;5072491;28;20032;-86
2021/05/24 01:19:34;;;;;;;2.40;0.95;;;;;;;15.64;55.64;100842.81;5072429;28;20471;-85
2021/05/24 01:22:01;;;;;;;5.60;1.38;;;;;;;15.65;55.32;100843.69;5072631;28;20064;-85
2021/05/24 01:24:27;;;;;;;3.42;0.93;;;;;;;15.64;55.69;100836.63;5072796;28;20450;-86
2021/05/24 01:26:53;;;;;;;3.80;1.20;;;;;;;15.65;55.64;100838.34;5072755;28;20029;-86
2021/05/24 01:29:20;;;;;;;2.65;1.10;;;;;;;15.67;55.57;100836.47;5072359;28;20028;-87
2021/05/24 01:31:48;;;;;;;1.27;0.88;;;;;;;15.67;55.43;100823.13;5072532;28;20054;-86
2021/05/24 01:34:15;;;;;;;3.35;0.90;;;;;;;15.66;55.59;100830.28;5071791;28;20060;-79
2021/05/24 01:36:42;;;;;;;3.85;1.10;;;;;;;15.67;55.48;100820.47;5091090;28;20079;-79
2021/05/24 01:39:09;;;;;;;5.22;1.40;;;;;;;15.67;55.51;100821.31;5092409;28;20028;-79
2021/05/24 01:41:35;;;;;;;1.45;0.93;;;;;;;15.67;55.49;100820.47;5092292;28;20123;-79
2021/05/24 01:44:04;;;;;;;2.72;1.05;;;;;;;15.66;55.70;100811.59;5092414;28;20032;-79
2021/05/24 01:46:30;;;;;;;1.45;0.82;;;;;;;15.65;55.88;100816.97;5092253;28;20356;-79
2021/05/24 01:48:57;;;;;;;4.18;1.25;;;;;;;15.61;55.94;100799.34;5092397;28;20039;-81
2021/05/24 01:51:23;;;;;;;2.78;0.95;;;;;;;15.58;56.16;100803.03;5092215;28;20028;-79
2021/05/24 01:53:49;;;;;;;1.38;0.82;;;;;;;15.63;56.02;100800.16;5092749;28;20035;-79
2021/05/24 01:56:16;;;;;;;1.42;0.88;;;;;;;15.63;56.13;100802.84;5092145;28;20493;-81
2021/05/24 01:58:42;;;;;;;2.72;1.13;;;;;;;15.65;55.96;100806.28;5092221;28;20036;-80
2021/05/24 02:01:10;;;;;;;5.20;1.10;;;;;;;15.67;55.88;100820.47;5092409;28;20422;-79
2021/05/24 02:03:38;;;;;;;2.58;0.80;;;;;;;15.64;55.85;100812.59;5092335;28;20128;-82
2021/05/24 02:06:05;;;;;;;3.67;1.05;;;;;;;15.74;55.56;100805.91;5094756;28;20550;-80
2021/05/24 02:08:33;;;;;;;1.50;0.80;;;;;;;15.77;55.43;100808.44;5096282;28;20110;-81
2021/05/24 02:11:02;;;;;;;2.20;0.90;;;;;;;15.82;55.28;100798.47;5096140;28;20029;-85
2021/05/24 02:13:28;;;;;;;3.88;0.73;;;;;;;15.73;55.87;100820.19;5095866;28;20024;-84
2021/05/24 02:15:55;;;;;;;3.03;1.00;;;;;;;15.77;55.69;100816.47;5086787;28;20028;-84
2021/05/24 02:18:22;;;;;;;1.27;0.73;;;;;;;15.79;55.56;100814.59;5090646;28;20040;-81
2021/05/24 02:20:49;;;;;;;1.00;0.70;;;;;;;15.64;55.07;100826.81;5096074;28;20482;-82
2021/05/24 02:23:16;;;;;;;4.10;0.80;;;;;;;15.71;53.08;100830.06;5095675;28;20127;-85
2021/05/24 02:25:43;;;;;;;1.90;0.75;;;;;;;15.89;53.18;100830.25;5095684;28;20048;-86
2021/05/24 02:28:10;;;;;;;2.10;0.70;;;;;;;15.78;53.50;100834.22;5095814;28;20043;-82
2021/05/24 02:30:37;;;;;;;1.90;0.90;;;;;;;15.81;54.05;100830.56;5095358;28;20028;-82
2021/05/24 02:33:04;;;;;;;2.10;0.60;;;;;;;15.77;55.42;100842.31;5095948;28;20024;-84
2021/05/24 02:35:31;;;;;;;1.85;0.80;;;;;;;15.56;55.77;100828.06;5095340;28;20020;-85
2021/05/24 02:37:58;;;;;;;2.15;0.82;;;;;;;15.35;56.99;100833.31;5095426;28;20036;-84
2021/05/24 02:40:27;;;;;;;3.00;0.70;;;;;;;15.40;56.70;100836.66;5095250;28;20062;-85
2021/05/24 02:42:54;;;;;;;2.05;0.93;;;;;;;15.27;57.78;100843.44;5095101;28;20178;-85
2021/05/24 02:45:21;;;;;;;2.30;1.02;;;;;;;15.30;57.71;100832.63;5095214;28;20028;-84
2021/05/24 02:47:49;;;;;;;1.63;1.10;;;;;;;14.76;59.35;100832.91;5095047;28;20532;-87
2021/05/24 02:50:20;;;;;;;3.72;0.90;;;;;;;14.63;59.41;100843.16;5095131;28;20020;-84
2021/05/24 02:52:46;;;;;;;2.45;0.93;;;;;;;14.64;59.07;100844.00;5095131;28;20020;-86
2021/05/24 02:55:14;;;;;;;2.80;0.80;;;;;;;14.76;58.86;100838.25;5095066;28;20157;-83
2021/05/24 02:57:41;;;;;;;2.58;1.00;;;;;;;14.55;59.57;100835.44;5094620;28;20486;-86
2021/05/24 03:00:08;;;;;;;2.50;1.10;;;;;;;14.38;60.54;100845.81;5095234;28;20028;-85
2021/05/24 03:02:45;;;;;;;4.38;0.80;;;;;;;14.60;60.04;100839.72;5095011;28;20024;-82
2021/05/24 03:05:14;;;;;;;1.92;1.05;;;;;;;14.53;60.04;100834.63;5095079;28;20024;-87
2021/05/24 03:07:41;;;;;;;2.03;1.45;;;;;;;14.42;60.37;100834.16;5094643;28;20035;-80
2021/05/24 03:10:08;;;;;;;2.88;1.30;;;;;;;14.42;60.99;100839.47;5094797;28;20030;-85
2021/05/24 03:12:34;;;;;;;2.70;1.10;;;;;;;14.54;60.52;100839.03;5093632;28;20052;-85
2021/05/24 03:15:00;;;;;;;4.47;0.82;;;;;;;14.50;60.81;100842.72;5094749;28;20070;-86
2021/05/24 03:17:36;;;;;;;3.47;0.98;;;;;;;14.49;61.57;100833.00;5094560;28;20050;-86
2021/05/24 03:20:05;;;;;;;2.80;1.20;;;;;;;14.21;62.04;100839.31;5092948;28;20043;-85
2021/05/24 03:22:31;;;;;;;7.28;1.00;;;;;;;14.35;61.90;100828.16;5094593;28;20107;-87
2021/05/24 03:24:59;;;;;;;2.30;1.10;;;;;;;14.48;61.28;100830.38;5094549;28;20028;-87
2021/05/24 03:27:25;;;;;;;3.30;1.30;;;;;;;14.52;61.28;100832.03;5094458;28;20032;-86
2021/05/24 03:29:51;;;;;;;2.20;1.17;;;;;;;14.42;61.59;100834.16;5094597;28;20024;-87
2021/05/24 03:32:18;;;;;;;5.43;1.40;;;;;;;14.52;61.53;100829.34;5094496;28;20024;-85
2021/05/24 03:34:44;;;;;;;4.50;1.75;;;;;;;14.55;61.79;100832.78;5094307;28;20111;-85
2021/05/24 03:37:10;;;;;;;1.58;1.30;;;;;;;14.55;61.89;100827.44;5093996;28;20380;-86
2021/05/24 03:39:37;;;;;;;4.47;1.60;;;;;;;14.53;62.31;100831.09;5094752;28;20043;-86
2021/05/24 03:42:03;;;;;;;2.95;1.50;;;;;;;14.51;62.37;100833.78;5093995;28;20031;-85
2021/05/24 03:44:30;;;;;;;4.95;1.90;;;;;;;14.56;62.35;100826.50;5093963;28;20028;-87
2021/05/24 03:46:56;;;;;;;4.63;1.70;;;;;;;14.50;62.49;100832.06;5094207;28;20472;-86
2021/05/24 03:49:22;;;;;;;4.30;1.73;;;;;;;14.53;62.29;100826.63;5093731;28;20040;-86
2021/05/24 03:51:49;;;;;;;4.55;1.83;;;;;;;14.50;62.40;100833.88;5094064;28;20032;-86
2021/05/24 03:54:15;;;;;;;2.88;1.70;;;;;;;14.57;62.43;100828.25;5094031;28;20061;-86
2021/05/24 03:56:41;;;;;;;2.15;1.77;;;;;;;14.59;62.55;100832.66;5094040;28;20106;-86
2021/05/24 03:59:08;;;;;;;2.67;1.70;;;;;;;14.60;62.58;100823.72;5093737;28;20032;-86
2021/05/24 04:01:37;;;;;;;3.30;1.60;;;;;;;14.46;63.16;100825.09;5093470;28;20157;-86
2021/05/24 04:04:04;;;;;;;2.03;1.50;;;;;;;14.48;62.76;100819.72;5092572;28;20024;-85
2021/05/24 04:06:30;;;;;;;4.25;1.63;;;;;;;14.44;63.29;100824.28;5073232;28;20025;-86
2021/05/24 04:08:57;;;;;;;4.82;1.70;;;;;;;14.45;63.34;100814.50;5087189;28;20387;-83
2021/05/24 04:11:23;;;;;;;3.88;1.40;;;;;;;14.50;62.68;100816.06;5073544;28;20056;-86
2021/05/24 04:13:52;;;;;;;2.75;1.30;;;;;;;14.46;63.05;100818.91;5086889;28;20055;-86
2021/05/24 04:16:19;;;;;;;2.13;1.23;;;;;;;14.38;63.08;100822.72;5087669;28;20025;-87
2021/05/24 04:18:47;;;;;;;4.10;1.30;;;;;;;14.37;63.03;100818.31;5077393;28;20035;-85
2021/05/24 04:21:14;;;;;;;1.77;1.10;;;;;;;14.31;63.01;100817.69;5090929;28;20031;-85
2021/05/24 04:23:41;;;;;;;4.47;1.13;;;;;;;14.32;62.46;100811.44;5073262;28;20056;-86
2021/05/24 04:26:08;;;;;;;3.42;1.10;;;;;;;14.28;62.46;100809.78;5073068;28;20070;-87
2021/05/24 04:28:34;;;;;;;2.58;1.00;;;;;;;14.21;62.54;100811.81;5072670;28;20020;-84
2021/05/24 04:31:01;;;;;;;2.67;1.02;;;;;;;14.25;62.05;100810.75;5073054;28;20085;-87
2021/05/24 04:33:27;;;;;;;1.23;0.82;;;;;;;14.20;62.56;100808.25;5073005;28;20055;-85
2021/05/24 04:35:54;;;;;;;2.50;0.88;;;;;;;14.29;62.19;100801.72;5072182;28;20028;-80
2021/05/24 04:38:20;;;;;;;5.38;1.50;;;;;;;14.32;62.06;100798.09;5072824;28;20028;-82
2021/05/24 04:40:47;;;;;;;3.22;1.30;;;;;;;14.31;61.75;100799.88;5073097;28;20025;-86
2021/05/24 04:43:15;;;;;;;3.80;1.00;;;;;;;14.17;61.83;100792.38;5081493;28;20486;-85
2021/05/24 04:45:41;;;;;;;1.63;0.85;;;;;;;14.31;61.25;100791.03;5092873;28;20038;-86
2021/05/24 04:48:08;;;;;;;0.90;0.80;;;;;;;14.32;61.53;100800.75;5092985;28;20110;-86
2021/05/24 04:50:34;;;;;;;1.73;1.00;;;;;;;14.34;61.59;100794.44;5092990;28;20028;-80
2021/05/24 04:53:00;;;;;;;1.45;0.82;;;;;;;14.16;61.87;100790.63;5093025;28;20375;-80
2021/05/24 04:55:26;;;;;;;3.65;1.10;;;;;;;14.30;61.57;100797.28;5092878;28;20088;-83
2021/05/24 04:57:53;;;;;;;2.65;0.90;;;;;;;14.22;62.01;100793.09;5091568;28;20040;-81
2021/05/24 05:00:19;;;;;;;1.75;0.80;;;;;;;14.24;61.76;100785.91;5092894;28;20032;-83
2021/05/24 05:02:45;;;;;;;2.60;1.00;;;;;;;14.28;61.53;100789.34;5092578;28;20043;-86
2021/05/24 05:05:12;;;;;;;2.70;0.93;;;;;;;14.26;61.18;100783.19;5092727;28;20364;-84
2021/05/24 05:07:38;;;;;;;1.42;0.90;;;;;;;14.34;61.15;100785.56;5093194;28;20047;-84
2021/05/24 05:10:05;;;;;;;2.45;1.17;;;;;;;14.27;61.20;100781.38;5092566;28;20093;-85
2021/05/24 05:12:32;;;;;;;3.15;0.82;;;;;;;14.30;61.04;100789.28;5093109;28;20123;-86
2021/05/24 05:14:59;;;;;;;1.52;0.82;;;;;;;14.34;61.43;100798.91;5092588;28;20024;-86
2021/05/24 05:17:25;;;;;;;3.70;1.10;;;;;;;14.17;61.38;100792.38;5092510;28;20040;-84
2021/05/24 05:19:51;;;;;;;1.55;0.80;;;;;;;14.13;61.13;100796.09;5092455;28;20077;-85
2021/05/24 05:22:18;;;;;;;0.80;0.65;;;;;;;14.18;60.76;100802.13;5092791;28;20032;-86
2021/05/24 05:24:44;;;;;;;2.28;1.10;;;;;;;14.08;61.56;100808.69;5092465;28;20103;-85
2021/05/24 05:27:11;;;;;;;3.13;1.05;;;;;;;14.04;61.94;100801.72;5092580;28;20054;-84
2021/05/24 05:29:37;;;;;;;2.22;0.85;;;;;;;14.03;62.01;100794.66;5092555;28;20475;-86
2021/05/24 05:32:03;;;;;;;2.60;1.15;;;;;;;14.17;61.32;100803.03;5092201;28;20038;-86
2021/05/24 05:34:29;;;;;;;2.72;1.20;;;;;;;14.17;62.00;100805.72;5092505;28;20121;-84
2021/05/24 05:36:56;;;;;;;2.58;1.00;;;;;;;14.01;62.44;100801.84;5092292;28;20501;-86
2021/05/24 05:39:22;;;;;;;1.63;0.98;;;;;;;14.18;61.92;100799.47;5092424;28;20036;-86
2021/05/24 05:41:48;;;;;;;2.88;1.20;;;;;;;14.19;62.19;100801.22;5096045;28;20139;-84
2021/05/24 05:44:14;;;;;;;2.65;1.00;;;;;;;14.26;62.19;100811.66;5096366;28;20082;-85
2021/05/24 05:46:40;;;;;;;4.55;1.17;;;;;;;14.32;61.94;100808.75;5096210;28;20052;-85
2021/05/24 05:49:06;;;;;;;1.73;1.25;;;;;;;14.29;62.20;100806.19;5095989;28;20106;-84
2021/05/24 05:51:33;;;;;;;4.22;1.08;;;;;;;14.32;62.62;100808.75;5096119;28;20027;-85
2021/05/24 05:53:59;;;;;;;2.10;1.13;;;;;;;14.34;62.66;100804.22;5096305;28;20031;-84
2021/05/24 05:56:25;;;;;;;5.55;1.67;;;;;;;14.26;62.75;100806.31;5095981;28;20016;-84
2021/05/24 05:58:51;;;;;;;1.33;1.10;;;;;;;14.25;62.99;100805.44;5095854;28;20268;-84
2021/05/24 06:01:18;;;;;;;3.33;1.30;;;;;;;14.29;63.23;100803.53;5096138;28;20044;-85
2021/05/24 06:03:44;;;;;;;4.57;1.23;;;;;;;14.29;63.10;100808.84;5095966;28;20374;-86
2021/05/24 06:06:12;;;;;;;1.95;1.10;;;;;;;14.36;63.20;100802.38;5095721;28;20399;-85
2021/05/24 06:08:39;;;;;;;2.08;1.20;;;;;;;14.39;62.96;100799.59;5095985;28;20024;-85
2021/05/24 06:11:06;;;;;;;3.53;1.30;;;;;;;14.42;63.23;100806.59;5095737;28;20030;-84
2021/05/24 06:13:32;;;;;;;2.33;1.38;;;;;;;14.47;63.32;100802.84;5095953;28;20051;-85
2021/05/24 06:15:58;;;;;;;4.38;1.88;;;;;;;14.48;63.11;100809.94;5079286;28;20380;-85
2021/05/24 06:18:25;;;;;;;2.10;1.33;;;;;;;14.59;63.04;100803.31;5075499;28;20095;-86
2021/05/24 06:20:51;;;;;;;2.70;1.42;;;;;;;14.52;63.19;100803.56;5075406;28;20521;-86
2021/05/24 06:23:18;;;;;;;5.18;1.65;;;;;;;14.50;63.43;100809.88;5075139;28;20029;-87
2021/05/24 06:25:45;;;;;;;2.85;1.55;;;;;;;14.49;63.46;100808.13;5077595;28;20021;-80
2021/05/24 06:28:12;;;;;;;4.13;1.80;;;;;;;14.45;63.60;100806.50;5095088;28;20540;-86
2021/05/24 06:30:39;;;;;;;3.15;1.35;;;;;;;14.47;63.73;100800.19;5075212;28;20078;-86
2021/05/24 06:33:05;;;;;;;5.53;1.50;;;;;;;14.51;63.34;100801.81;5075452;28;20098;-85
2021/05/24 06:35:32;;;;;;;5.72;1.50;;;;;;;14.57;63.51;100796.25;5075159;28;20070;-86
2021/05/24 06:37:58;;;;;;;3.83;1.40;;;;;;;14.64;63.32;100794.25;5075529;28;20032;-87
2021/05/24 06:40:25;;;;;;;1.85;1.10;;;;;;;14.61;63.52;100785.47;5074939;28;20055;-86
2021/05/24 06:42:51;;;;;;;2.00;1.20;;;;;;;14.72;63.68;100802.81;5080461;28;20106;-86
2021/05/24 06:45:19;;;;;;;2.35;1.38;;;;;;;14.73;63.37;100787.72;5095339;28;20085;-87
2021/05/24 06:47:46;;;;;;;2.95;1.27;;;;;;;14.85;63.14;100789.91;5094928;28;20050;-87
2021/05/24 06:50:14;;;;;;;3.45;1.40;;;;;;;14.85;63.48;100789.03;5095046;28;20487;-87
2021/05/24 06:52:40;;;;;;;2.72;1.45;;;;;;;14.70;63.26;100782.47;5093572;28;20040;-88
2021/05/24 06:55:08;;;;;;;3.30;1.50;;;;;;;14.70;63.60;100785.16;5094959;28;20383;-85
2021/05/24 06:57:34;;;;;;;3.53;1.63;;;;;;;14.82;63.03;100795.34;5094415;28;20067;-85
2021/05/24 07:00:00;;;;;;;2.55;1.35;;;;;;;14.72;63.33;100797.50;5079938;28;20112;-87
2021/05/24 07:02:26;;;;;;;1.88;1.25;;;;;;;14.65;63.54;100789.78;5074777;28;20035;-87
2021/05/24 07:04:52;;;;;;;2.58;1.27;;;;;;;14.71;63.16;100792.22;5087475;28;20028;-85
2021/05/24 07:07:18;;;;;;;3.80;1.42;;;;;;;14.73;63.15;100790.38;5075270;28;20021;-87
2021/05/24 07:09:45;;;;;;;2.85;1.65;;;;;;;14.70;63.13;100785.16;5074397;28;20032;-86
2021/05/24 07:12:11;;;;;;;1.55;1.30;;;;;;;14.67;63.08;100780.81;5074219;28;20036;-85
2021/05/24 07:14:37;;;;;;;2.60;1.35;;;;;;;14.69;62.93;100786.06;5074476;28;20475;-87
2021/05/24 07:17:03;;;;;;;2.08;1.10;;;;;;;14.73;62.76;100782.38;5074277;28;20047;-85
2021/05/24 07:19:29;;;;;;;3.90;1.63;;;;;;;14.71;62.99;100779.75;5074065;28;20028;-85
2021/05/24 07:21:56;;;;;;;2.72;1.27;;;;;;;14.68;62.93;100777.22;5074001;28;20030;-86
2021/05/24 07:24:22;;;;;;;2.38;1.25;;;;;;;14.76;62.81;100779.59;5073933;28;20031;-85
2021/05/24 07:26:50;;;;;;;3.42;1.50;;;;;;;14.72;62.70;100777.97;5074160;28;20139;-87
2021/05/24 07:29:17;;;;;;;2.85;1.23;;;;;;;14.79;62.62;100779.47;5073751;28;20021;-87
2021/05/24 07:31:43;;;;;;;4.35;1.25;;;;;;;14.72;62.81;100776.16;5074155;28;20143;-87
2021/05/24 07:34:09;;;;;;;4.78;1.30;;;;;;;14.71;62.94;100778.91;5073830;28;20060;-84
2021/05/24 07:36:36;;;;;;;4.35;1.15;;;;;;;14.67;63.03;100772.81;5074728;28;20073;-81
2021/05/24 07:39:03;;;;;;;2.13;1.08;;;;;;;14.64;63.10;100770.25;5073664;28;20119;-81
2021/05/24 07:41:29;;;;;;;1.77;1.23;;;;;;;14.70;62.93;100774.47;5073906;28;20021;-83
2021/05/24 07:43:55;;;;;;;6.22;1.38;;;;;;;14.79;62.72;100774.16;5088252;28;20039;-85
2021/05/24 07:46:21;;;;;;;2.05;1.10;;;;;;;14.91;62.67;100766.59;5093956;28;20055;-81
2021/05/24 07:48:48;;;;;;;4.70;1.55;;;;;;;14.81;62.91;100766.94;5093762;28;20028;-83
2021/05/24 07:51:14;;;;;;;2.08;1.10;;;;;;;14.85;62.81;100773.91;5093676;28;20059;-87
2021/05/24 07:53:40;;;;;;;2.30;1.20;;;;;;;14.83;62.50;100772.22;5093542;28;20036;-87
2021/05/24 07:56:06;;;;;;;2.35;1.20;;;;;;;14.71;62.64;100776.22;5093837;28;20031;-86
2021/05/24 07:58:32;;;;;;;2.33;1.20;;;;;;;14.81;62.48;100766.06;5093618;28;20032;-85
2021/05/24 08:00:58;;;;;;;2.17;1.10;;;;;;;14.82;62.42;100775.81;5093362;28;20043;-86
2021/05/24 08:03:25;;;;;;;2.38;1.15;;;;;;;14.80;62.64;100773.19;5092866;28;20478;-87
2021/05/24 08:05:51;;;;;;;5.15;1.20;;;;;;;14.71;62.93;100776.22;5093777;28;20028;-85
2021/05/24 08:08:17;;;;;;;2.97;1.40;;;;;;;14.75;62.83;100774.31;5093669;28;20135;-85
2021/05/24 08:10:43;;;;;;;2.05;1.25;;;;;;;14.78;62.54;100767.06;5093518;28;20032;-86
2021/05/24 08:13:09;;;;;;;1.25;0.95;;;;;;;14.71;63.07;100760.22;5093462;28;20020;-86
2021/05/24 08:15:35;;;;;;;3.33;1.17;;;;;;;14.77;62.90;100761.81;5093442;28;20055;-86
2021/05/24 08:18:07;;;;;;;4.20;1.00;;;;;;;14.79;62.93;100763.47;5093059;28;20036;-87
2021/05/24 08:20:34;;;;;;;4.20;1.35;;;;;;;14.75;63.12;100763.66;5093163;28;20055;-85
2021/05/24 08:23:01;;;;;;;1.85;1.17;;;;;;;14.86;62.81;100766.75;5093217;28;20028;-87
2021/05/24 08:25:27;;;;;;;1.60;1.38;;;;;;;14.74;62.93;100770.75;5093419;28;20024;-86
2021/05/24 08:27:54;;;;;;;1.92;1.10;;;;;;;14.80;62.82;100765.19;5093253;28;20028;-86
2021/05/24 08:30:21;;;;;;;2.85;1.15;;;;;;;14.87;62.92;100774.69;5093072;28;20050;-85
2021/05/24 08:32:48;;;;;;;2.78;1.20;;;;;;;14.95;62.85;100760.19;5093191;28;20123;-86
2021/05/24 08:35:14;;;;;;;2.50;1.13;;;;;;;14.86;63.18;100767.63;5093285;28;20032;-86
2021/05/24 08:37:40;;;;;;;2.42;1.20;;;;;;;14.91;63.13;100761.25;5093001;28;20028;-86
2021/05/24 08:40:08;;;;;;;2.45;1.20;;;;;;;15.03;63.11;100771.44;5092744;28;20028;-84
2021/05/24 08:42:40;;;;;;;1.88;1.33;;;;;;;14.96;63.29;100769.94;5092961;28;20021;-86
2021/05/24 08:45:08;;;;;;;2.47;1.30;;;;;;;15.06;63.13;100773.13;5092933;28;20108;-86
2021/05/24 08:47:35;;;;;;;3.85;1.45;;;;;;;15.11;63.44;100774.66;5092620;28;20429;-86
2021/05/24 08:50:01;;;;;;;1.85;1.30;;;;;;;15.18;63.20;100765.47;5079666;28;20017;-87
2021/05/24 08:52:28;;;;;;;2.28;1.30;;;;;;;15.27;63.02;100774.06;5072619;28;20502;-87
2021/05/24 08:54:55;;;;;;;1.85;1.10;;;;;;;15.22;63.45;100765.38;5072498;28;20115;-86
2021/05/24 08:57:21;;;;;;;2.65;1.27;;;;;;;15.26;63.19;100766.97;5072407;28;20407;-84
2021/05/24 08:59:48;;;;;;;1.70;1.30;;;;;;;15.37;63.07;100776.25;5072607;28;20028;-87
2021/05/24 09:02:14;;;;;;;4.72;1.40;;;;;;;15.42;63.03;100778.75;5072467;28;20101;-86
2021/05/24 09:07:26;;;;;;;2.08;1.10;;;;;;;15.48;63.30;100770.47;5073414;27;20394;-86
2021/05/24 09:12:41;;;;;;;3.53;1.20;;;;;;;15.63;63.16;100771.63;5072089;27;20443;-86
2021/05/24 09:15:12;;;;;;;2.05;1.23;;;;;;;15.61;63.06;100768.16;5069909;28;20503;-86
2021/05/24 09:20:32;;;;;;;3.95;1.20;;;;;;;15.67;62.68;100767.03;5078196;28;20435;-86
2021/05/24 09:23:26;;;;;;;1.42;1.10;;;;;;;15.71;62.84;100773.97;5068930;28;20039;-85
2021/05/24 09:28:40;;;;;;;3.10;1.02;;;;;;;15.73;62.45;100769.44;5080495;27;20881;-87
2021/05/24 09:31:14;;;;;;;4.95;1.00;;;;;;;15.82;62.46;100784.25;5054621;28;20199;-88
2021/05/24 09:33:44;;;;;;;3.00;1.05;;;;;;;15.77;62.44;100780.88;5050124;28;20063;-88
2021/05/24 09:36:11;;;;;;;2.20;1.45;;;;;;;15.73;62.80;100790.81;5049944;28;20362;-87
2021/05/24 09:38:43;;;;;;;3.60;1.27;;;;;;;15.51;62.61;100797.06;5055982;28;20091;-88
2021/05/24 09:41:12;;;;;;;2.17;1.30;;;;;;;15.73;62.46;100795.31;5064502;28;20025;-88
2021/05/24 09:43:40;;;;;;;2.53;1.00;;;;;;;15.76;62.20;100792.50;5049923;28;20029;-88
2021/05/24 09:46:28;;;;;;;2.33;1.30;;;;;;;15.51;62.55;100781.06;5049402;28;20463;-88
2021/05/24 09:49:01;;;;;;;2.90;1.05;;;;;;;15.77;62.28;100779.06;5049759;28;20033;-88
2021/05/24 09:51:31;;;;;;;2.47;1.23;;;;;;;15.78;62.40;100782.63;5049613;28;20103;-87
2021/05/24 09:56:44;;;;;;;3.92;1.10;;;;;;;15.89;62.55;100771.47;5082388;27;20412;-86
2021/05/24 09:59:14;;;;;;;1.20;1.10;;;;;;;16.11;62.00;100760.72;5056344;28;20036;-83
2021/05/24 10:01:44;;;;;;;1.65;1.00;;;;;;;16.00;62.62;100763.91;5049914;28;20056;-86
2021/05/24 10:04:13;;;;;;;2.67;1.27;;;;;;;16.20;61.91;100770.13;5050101;28;20022;-85
2021/05/24 10:06:40;;;;;;;3.20;1.00;;;;;;;16.21;61.90;100759.38;5049571;28;20539;-86
2021/05/24 10:09:08;;;;;;;1.15;0.90;;;;;;;16.09;61.22;100765.28;5049940;28;20091;-87
2021/05/24 10:11:37;;;;;;;1.85;1.23;;;;;;;15.96;61.56;100756.94;5049509;28;20112;-86
2021/05/24 10:14:05;;;;;;;3.22;1.10;;;;;;;16.13;61.33;100748.16;5050166;28;20028;-85
2021/05/24 10:16:34;;;;;;;1.27;1.17;;;;;;;16.06;61.67;100760.91;5049417;28;20033;-86
2021/05/24 10:19:01;;;;;;;4.95;1.35;;;;;;;16.04;61.77;100767.28;5049651;28;20103;-83
2021/05/24 10:21:27;;;;;;;1.70;1.08;;;;;;;16.13;61.44;100753.53;5049367;28;20034;-86
2021/05/24 10:23:54;;;;;;;2.72;1.23;;;;;;;16.13;61.29;100754.38;5049504;28;20029;-86
2021/05/24 10:26:21;;;;;;;3.03;1.30;;;;;;;16.23;61.16;100757.50;5049593;28;20049;-86
2021/05/24 10:28:49;;;;;;;3.88;1.45;;;;;;;16.19;61.43;100758.59;5048119;28;20052;-80
2021/05/24 10:31:19;;;;;;;1.30;1.00;;;;;;;16.27;60.73;100761.75;5049198;28;20060;-81
2021/05/24 10:33:46;;;;;;;1.20;1.10;;;;;;;16.37;60.80;100759.53;5049087;28;20033;-85
2021/05/24 10:36:16;;;;;;;1.65;1.38;;;;;;;16.46;60.54;100756.47;5049006;28;20071;-84
2021/05/24 10:38:43;;;;;;;1.08;0.98;;;;;;;16.22;60.93;100749.56;5049385;28;20440;-84
2021/05/24 10:41:14;;;;;;;3.90;1.08;;;;;;;16.34;60.57;100743.66;5049404;28;20530;-85
2021/05/24 10:43:47;;;;;;;1.85;1.02;;;;;;;16.37;60.53;100751.53;5049162;28;20056;-83
2021/05/24 10:51:58;;;;;;;1.27;0.93;;;;;;;16.26;59.59;100751.16;5072306;27;20398;-82
2021/05/24 10:57:10;;;;;;;1.00;0.77;;;;;;;16.40;59.47;100740.72;5071243;27;20582;-83
2021/05/24 11:02:37;;;;;;;1.27;1.00;;;;;;;16.56;58.85;100745.31;5069914;27;20801;-85
2021/05/24 11:05:27;;;;;;;1.65;1.08;;;;;;;16.62;58.77;100745.03;5070026;28;20098;-85
2021/05/24 11:07:57;;;;;;;1.27;1.17;;;;;;;16.58;58.87;100740.78;5070390;28;20056;-85
2021/05/24 11:10:26;;;;;;;1.52;1.20;;;;;;;16.56;58.91;100745.31;5069733;28;20246;-84
2021/05/24 11:15:50;;;;;;;1.50;1.20;;;;;;;16.60;59.04;100749.63;5071733;27;20154;-83
2021/05/24 11:18:23;;;;;;;5.00;1.50;;;;;;;16.84;58.65;100746.72;5064106;28;20033;-84
2021/05/24 11:29:09;;;;;;;1.33;1.02;;;;;;;17.27;57.57;100741.97;5063316;28;20853;-82
2021/05/24 11:34:37;;;;;;;1.55;1.40;;;;;;;17.70;56.46;100729.06;5069873;28;20416;-83
2021/05/24 11:37:05;;;;;;;1.98;1.40;;;;;;;17.78;56.60;100726.00;5070109;28;20036;-83
2021/05/24 11:45:18;;;;;;;2.45;1.13;;;;;;;17.90;54.77;100719.97;5088858;28;20880;-84
2021/05/24 11:47:44;;;;;;;3.08;1.10;;;;;;;17.81;55.11;100714.25;5068687;28;20044;-83
2021/05/24 11:50:11;;;;;;;3.00;1.38;;;;;;;17.65;54.85;100715.06;5050116;28;20167;-83
2021/05/24 11:52:38;;;;;;;1.63;1.13;;;;;;;17.71;54.50;100711.19;5050030;28;20047;-83
2021/05/24 11:55:14;;;;;;;3.13;1.40;;;;;;;17.61;54.30;100705.44;5049794;28;20026;-83
2021/05/24 11:57:43;;;;;;;2.50;1.30;;;;;;;17.49;54.44;100706.94;5049901;28;20136;-83
2021/05/24 12:00:11;;;;;;;1.48;1.10;;;;;;;17.29;54.38;100713.31;5049559;28;20021;-82
2021/05/24 12:02:38;;;;;;;3.45;1.13;;;;;;;17.45;54.63;100714.25;5049701;28;20029;-85
2021/05/24 12:05:05;;;;;;;1.50;1.10;;;;;;;17.39;54.35;100730.63;5049458;28;20033;-83
2021/05/24 12:07:31;;;;;;;2.22;1.23;;;;;;;17.21;54.60;100720.84;5049795;28;20067;-84
2021/05/24 12:09:59;;;;;;;1.75;1.10;;;;;;;17.18;54.81;100732.56;5049567;28;20496;-82